Freeman, SD

12:56 PM CST on February 08, 2016 (GMT -0600)
Turkey Ridge | | Change Station
CLOSE
Current Station
Personal Weather Station
Location: Freeman, SD
Elevation: 1644 ft
Nearby Weather Stations
Active Advisory: Wind Advisory Active Notice: Public Information Statement

Elev 1644 ft 43.26 °N, 97.36 °W | Updated 5 minutes ago

Partly Cloudy
Partly Cloudy
24.8 °F
Feels Like 13 °F
N
14.0
Wind Variable Wind from NW
Gusts 14.0 mph

Today
High -- | Low -- °F
--% Chance of Precip.
Yesterday
High -- | Low -- °F
Precip. -- in
Pressure 30.15 in
Visibility 10.0 miles
Clouds Few 3000 ft
Scattered Clouds 3700 ft
Windchill 13 °F
Dew Point 20 °F
Humidity 80%
Rainfall 0.00 in
Snow Depth Not available.
7:37 AM 5:50 PM
New Moon, 0% visible
METAR KYKN 081835Z AUTO 32025G31KT 10SM FEW030 SCT037 M02/M08 A3015 RMK AO1
Pressure 30.15 in
Visibility 10.0 miles
Clouds Few 3000 ft
Scattered Clouds 3700 ft
Windchill 13 °F
Dew Point 20 °F
Humidity 80%
Rainfall 0.00 in
Snow Depth Not available.
7:37 AM 5:50 PM
New Moon, 0% visible
METAR KYKN 081835Z AUTO 32025G31KT 10SM FEW030 SCT037 M02/M08 A3015 RMK AO1

10-Day Weather Forecast

Almanac

Astronomy

Feb. 08, 2016 Rise Set
Actual Time
Civil Twilight
Nautical Twilight
Astronomical Twilight
Moon
Length of Visible Light
Length of Day
Tomorrow will be .
, % of the Moon is Illuminated

Today's Extremes

State Highs State Lows

Community

WunderPhotos

Upload Photos

1,891,481 photos uploaded!

WunderBlog® & News

Nearby

Air Quality

  Air Quality AQ Index Pollutant
Not available.

Snow Depth

Station Depth Elevation

Earthquake Activity

City Distance Mag. Time & Date
Minimum magnitude displayed is 2.5.

Coastal Water Temperatures

Place Temperature

Stations

Nearby Weather Stations

Station Location Temp. Windchill Dew Point Humidity Wind Precip. Elev Updated Type
                   

Watches & Warnings

Wind Advisory
Issued: 11:41 AM CST Feb. 8, 2016 – National Weather Service

... Wind Advisory remains in effect until 5 PM CST this
afternoon...

* timing... strong north winds will persist into late afternoon...
   then gradually diminish.

* Weather conditions... sustained wind speeds between 25 and 35
mph are likely... with gusts to 45 mph.

* Snow accumulations/impacts... no additional accumulating snow is
expected this afternoon. However patchy drifting snow may
impact travel today.

Precautionary/preparedness actions...

A Wind Advisory is issued when sustained winds are forecast to be
31 to 39 mph or gusts will range between 46 and 57 mph. Winds of
these magnitudes may cause minor property damage without extra
precautions. Motorists in high profile vehicles should use
caution until the winds subside.